createdAt,value
2018-12-25T00:01:33.702Z,1.80
2018-12-25T00:04:14.278Z,1.80
2018-12-25T00:06:55.190Z,1.80
2018-12-25T00:09:36.509Z,1.80
2018-12-25T00:12:17.406Z,1.70
2018-12-25T00:14:58.294Z,1.70
2018-12-25T00:17:39.665Z,1.60
2018-12-25T00:20:20.222Z,1.60
2018-12-25T00:23:00.712Z,1.60
2018-12-25T00:25:41.522Z,1.50
2018-12-25T00:28:22.213Z,1.50
2018-12-25T00:31:03.194Z,1.50
2018-12-25T00:33:44.104Z,1.40
2018-12-25T00:36:25.549Z,1.40
2018-12-25T00:39:06.118Z,1.40
2018-12-25T00:41:46.509Z,1.40
2018-12-25T00:44:27.466Z,1.40
2018-12-25T00:47:08.602Z,1.40
2018-12-25T00:49:50.020Z,1.40
2018-12-25T00:52:30.985Z,1.30
2018-12-25T00:55:11.297Z,1.30
2018-12-25T00:57:52.089Z,1.30
2018-12-25T01:00:32.805Z,1.30
2018-12-25T01:03:14.272Z,1.20
2018-12-25T01:05:55.629Z,1.20
2018-12-25T01:08:36.482Z,1.20
2018-12-25T01:11:17.773Z,1.20
2018-12-25T01:13:58.578Z,1.20
2018-12-25T01:16:39.677Z,1.20
2018-12-25T01:19:23.473Z,1.10
2018-12-25T01:22:02.814Z,1.10
2018-12-25T01:24:43.830Z,1.10
2018-12-25T01:27:24.130Z,1.00
2018-12-25T01:30:04.882Z,1.00
2018-12-25T01:32:45.962Z,1.00
2018-12-25T01:35:26.842Z,1.00
2018-12-25T01:38:07.801Z,1.00
2018-12-25T01:40:48.394Z,1.00
2018-12-25T01:43:29.785Z,0.90
2018-12-25T01:46:10.301Z,0.90
2018-12-25T01:48:50.942Z,0.90
2018-12-25T01:51:31.854Z,0.80
2018-12-25T01:54:12.201Z,0.80
2018-12-25T01:56:52.734Z,0.80
2018-12-25T01:59:33.645Z,0.80
2018-12-25T02:02:14.462Z,0.80
2018-12-25T02:04:54.894Z,0.80
2018-12-25T02:07:35.672Z,0.80
2018-12-25T02:10:16.599Z,0.80
2018-12-25T02:12:57.991Z,0.80
2018-12-25T02:15:38.913Z,0.80
2018-12-25T02:18:19.659Z,0.70
2018-12-25T02:21:00.332Z,0.70
2018-12-25T02:23:41.065Z,0.70
2018-12-25T02:26:21.793Z,0.70
2018-12-25T02:29:02.120Z,0.70
2018-12-25T02:31:43.054Z,0.70
2018-12-25T02:34:23.902Z,0.70
2018-12-25T02:39:46.563Z,0.70
2018-12-25T02:42:27.537Z,0.70
2018-12-25T02:45:09.040Z,0.60
2018-12-25T02:47:50.183Z,0.60
2018-12-25T02:53:17.466Z,0.60
2018-12-25T02:55:58.169Z,0.60
2018-12-25T02:58:40.125Z,0.60
2018-12-25T03:04:04.965Z,0.50
2018-12-25T03:06:45.323Z,0.50
2018-12-25T03:09:26.141Z,0.50
2018-12-25T03:14:57.578Z,0.40
2018-12-25T03:20:27.098Z,0.40
2018-12-25T03:25:53.334Z,0.40
2018-12-25T03:28:34.520Z,0.40
2018-12-25T03:31:15.695Z,0.40
2018-12-25T03:36:40.629Z,0.40
2018-12-25T03:39:21.126Z,0.40
2018-12-25T03:44:51.488Z,0.30
2018-12-25T03:47:32.587Z,0.30
2018-12-25T03:50:15.190Z,0.30
2018-12-25T03:55:41.323Z,0.30
2018-12-25T04:01:06.362Z,0.20
2018-12-25T04:06:36.165Z,0.20
2018-12-25T04:12:06.075Z,0.20
2018-12-25T04:14:46.390Z,0.20
2018-12-25T04:17:28.323Z,0.20
2018-12-25T04:22:58.329Z,0.10
2018-12-25T04:28:26.022Z,0.10
2018-12-25T04:31:07.427Z,0.10
2018-12-25T04:36:32.679Z,0.10
2018-12-25T04:42:02.450Z,0.00
2018-12-25T04:47:33.605Z,0.00
2018-12-25T04:50:14.923Z,0.00
2018-12-25T04:52:58.805Z,0.00
2018-12-25T04:58:29.442Z,0.00
2018-12-25T05:03:58.513Z,0.00
2018-12-25T05:06:39.214Z,0.00
2018-12-25T05:12:09.846Z,0.00
2018-12-25T05:17:35.871Z,0.10
2018-12-25T05:23:06.129Z,0.10
2018-12-25T05:28:36.553Z,0.20
2018-12-25T05:34:02.804Z,0.30
2018-12-25T05:39:33.214Z,0.40
2018-12-25T05:42:15.178Z,0.40
2018-12-25T05:47:46.521Z,0.50
2018-12-25T05:53:11.074Z,0.60
2018-12-25T05:58:37.033Z,0.60
2018-12-25T06:04:05.345Z,0.70
2018-12-25T06:09:35.932Z,0.80
2018-12-25T06:12:17.197Z,0.80
2018-12-25T06:15:01.024Z,0.80
2018-12-25T06:17:42.623Z,0.90
2018-12-25T06:20:23.767Z,0.90
2018-12-25T06:25:49.218Z,0.90
2018-12-25T06:28:31.333Z,0.90
2018-12-25T06:33:57.475Z,0.90
2018-12-25T06:39:27.622Z,1.00
2018-12-25T06:44:59.793Z,1.00
2018-12-25T06:50:26.305Z,1.10
2018-12-25T06:55:51.581Z,1.10
2018-12-25T07:01:20.013Z,1.00
2018-12-25T07:04:00.385Z,1.00
2018-12-25T07:06:41.090Z,1.00
2018-12-25T07:09:22.224Z,1.10
2018-12-25T07:12:03.119Z,1.10
2018-12-25T07:14:44.177Z,1.10
2018-12-25T07:17:28.511Z,1.10
2018-12-25T07:20:09.700Z,1.10
2018-12-25T07:22:50.025Z,1.10
2018-12-25T07:25:31.117Z,1.20
2018-12-25T07:28:11.978Z,1.20
2018-12-25T07:30:53.262Z,1.20
2018-12-25T07:33:33.833Z,1.20
2018-12-25T07:36:14.758Z,1.20
2018-12-25T07:47:31.071Z,1.20
2018-12-25T07:55:57.638Z,1.30
2018-12-25T08:07:12.179Z,1.30
2018-12-25T08:18:26.018Z,1.40
2018-12-25T08:23:57.430Z,1.50
2018-12-25T08:29:27.938Z,1.50
2018-12-25T08:34:52.861Z,1.60
2018-12-25T08:37:34.247Z,1.60
2018-12-25T08:40:15.449Z,1.60
2018-12-25T08:42:56.478Z,1.70
2018-12-25T08:48:26.870Z,1.80
2018-12-25T08:51:07.766Z,1.80
2018-12-25T08:53:48.285Z,1.90
2018-12-25T08:56:28.773Z,1.90
2018-12-25T08:59:09.416Z,2.00
2018-12-25T09:01:50.212Z,2.00
2018-12-25T09:04:31.317Z,2.00
2018-12-25T09:07:11.977Z,2.10
2018-12-25T09:09:52.722Z,2.10
2018-12-25T09:12:33.312Z,2.10
2018-12-25T09:15:14.532Z,2.20
2018-12-25T09:17:55.353Z,2.20
2018-12-25T09:20:35.924Z,2.20
2018-12-25T09:23:16.249Z,2.20
2018-12-25T09:25:56.994Z,2.20
2018-12-25T09:28:37.738Z,2.20
2018-12-25T09:31:18.550Z,2.20
2018-12-25T09:33:59.069Z,2.30
2018-12-25T09:36:39.393Z,2.30
2018-12-25T09:39:20.173Z,2.40
2018-12-25T09:42:01.129Z,2.40
2018-12-25T09:44:42.213Z,2.40
2018-12-25T09:47:22.865Z,2.50
2018-12-25T09:50:03.505Z,2.50
2018-12-25T09:52:44.073Z,2.60
2018-12-25T09:55:24.686Z,2.50
2018-12-25T09:58:05.151Z,2.50
2018-12-25T10:00:46.221Z,2.60
2018-12-25T10:03:26.770Z,2.60
2018-12-25T10:06:07.736Z,2.60
2018-12-25T10:08:48.365Z,2.60
2018-12-25T10:11:29.489Z,2.60
2018-12-25T10:14:10.578Z,2.60
2018-12-25T10:16:51.210Z,2.70
2018-12-25T10:19:31.924Z,2.70
2018-12-25T10:22:12.510Z,2.80
2018-12-25T10:24:53.413Z,2.80
2018-12-25T10:27:34.612Z,2.80
2018-12-25T10:30:15.366Z,2.80
2018-12-25T10:32:55.641Z,2.90
2018-12-25T10:35:36.269Z,2.80
2018-12-25T10:38:16.985Z,2.90
2018-12-25T10:40:57.531Z,2.90
2018-12-25T10:43:38.395Z,3.10
2018-12-25T10:46:18.913Z,3.20
2018-12-25T10:48:59.797Z,3.10
2018-12-25T10:51:40.224Z,3.10
2018-12-25T10:54:21.181Z,3.10
2018-12-25T10:57:01.613Z,3.10
2018-12-25T10:59:42.709Z,3.10
2018-12-25T11:02:23.293Z,3.00
2018-12-25T11:05:03.930Z,3.10
2018-12-25T11:07:45.226Z,3.20
2018-12-25T11:10:25.833Z,3.30
2018-12-25T11:13:06.665Z,3.40
2018-12-25T11:15:47.774Z,3.50
2018-12-25T11:18:28.497Z,3.40
2018-12-25T11:21:09.338Z,3.30
2018-12-25T11:23:50.141Z,3.30
2018-12-25T11:29:20.249Z,3.30
2018-12-25T11:32:00.965Z,3.40
2018-12-25T11:34:41.833Z,3.40
2018-12-25T11:37:22.297Z,3.40
2018-12-25T11:40:03.291Z,3.40
2018-12-25T11:42:44.240Z,3.60
2018-12-25T11:45:24.874Z,3.70
2018-12-25T11:50:51.402Z,3.90
2018-12-25T11:56:20.683Z,3.90
2018-12-25T11:59:02.494Z,3.90
2018-12-25T12:01:46.023Z,3.90
2018-12-25T12:04:26.337Z,3.80
2018-12-25T12:07:06.989Z,3.90
2018-12-25T12:09:48.985Z,3.90
2018-12-25T12:15:15.467Z,3.90
2018-12-25T12:20:45.569Z,4.00
2018-12-25T12:26:11.602Z,4.10
2018-12-25T12:31:41.003Z,4.20
2018-12-25T12:37:06.437Z,4.20
2018-12-25T12:42:32.117Z,4.10
2018-12-25T12:47:58.342Z,4.10
2018-12-25T12:50:40.415Z,4.20
2018-12-25T12:56:11.869Z,4.20
2018-12-25T13:01:37.358Z,4.20
2018-12-25T13:07:07.997Z,4.20
2018-12-25T13:12:38.478Z,4.30
2018-12-25T13:18:06.762Z,4.20
2018-12-25T13:23:36.933Z,4.10
2018-12-25T13:29:02.266Z,4.20
2018-12-25T13:31:43.438Z,4.10
2018-12-25T13:37:09.073Z,4.20
2018-12-25T13:42:40.427Z,4.20
2018-12-25T13:48:07.003Z,4.10
2018-12-25T13:53:38.490Z,4.10
2018-12-25T13:59:09.521Z,4.20
2018-12-25T14:04:35.689Z,4.30
2018-12-25T14:10:05.838Z,4.30
2018-12-25T14:15:34.213Z,4.30
2018-12-25T14:21:04.203Z,4.30
2018-12-25T14:23:45.777Z,4.20
2018-12-25T14:29:16.873Z,4.20
2018-12-25T14:34:43.194Z,4.20
2018-12-25T14:40:14.610Z,4.20
2018-12-25T14:45:40.969Z,4.10
2018-12-25T14:51:10.289Z,4.10
2018-12-25T14:56:36.718Z,4.10
2018-12-25T15:02:08.005Z,4.20
2018-12-25T15:04:48.406Z,4.20
2018-12-25T15:10:19.261Z,4.20
2018-12-25T15:15:49.146Z,4.20
2018-12-25T15:18:30.089Z,4.20
2018-12-25T15:21:13.606Z,4.10
2018-12-25T15:26:43.416Z,4.10
2018-12-25T15:32:13.097Z,4.10
2018-12-25T15:34:53.370Z,4.00
2018-12-25T15:37:33.981Z,4.00
2018-12-25T15:42:58.661Z,3.90
2018-12-25T15:48:28.678Z,3.90
2018-12-25T15:51:09.080Z,3.90
2018-12-25T15:53:50.546Z,3.90
2018-12-25T15:56:31.713Z,3.90
2018-12-25T16:05:11.705Z,3.80
2018-12-25T16:07:52.860Z,3.80
2018-12-25T16:10:33.521Z,3.80
2018-12-25T16:13:14.265Z,3.80
2018-12-25T16:15:55.492Z,3.70
2018-12-25T16:18:36.493Z,3.70
2018-12-25T16:24:01.189Z,3.70
2018-12-25T16:26:42.125Z,3.60
2018-12-25T16:29:23.376Z,3.70
2018-12-25T16:32:03.875Z,3.70
2018-12-25T16:34:44.594Z,3.70
2018-12-25T16:37:25.269Z,3.70
2018-12-25T16:40:05.611Z,3.70
2018-12-25T16:42:46.606Z,3.70
2018-12-25T16:45:28.146Z,3.70
2018-12-25T16:48:09.375Z,3.70
2018-12-25T16:50:50.674Z,3.70
2018-12-25T16:56:17.117Z,3.70
2018-12-25T17:04:33.610Z,3.60
2018-12-25T17:07:14.549Z,3.60
2018-12-25T17:09:55.349Z,3.70
2018-12-25T17:12:36.636Z,3.70
2018-12-25T17:15:20.353Z,3.70
2018-12-25T17:18:00.929Z,3.60
2018-12-25T17:20:41.437Z,3.60
2018-12-25T17:23:10.645Z,3.60
2018-12-25T17:25:58.833Z,3.60
2018-12-25T17:28:46.745Z,3.60
2018-12-25T17:31:34.941Z,3.60
2018-12-25T17:34:23.064Z,3.60
2018-12-25T17:37:11.265Z,3.60
2018-12-25T17:39:59.397Z,3.60
2018-12-25T17:42:47.741Z,3.60
2018-12-25T17:51:17.369Z,3.70
2018-12-25T17:54:10.679Z,3.60
2018-12-25T17:56:55.430Z,3.70
2018-12-25T18:02:18.053Z,3.70
2018-12-25T18:05:11.799Z,3.60
2018-12-25T18:07:55.770Z,3.70
2018-12-25T18:10:43.914Z,3.60
2018-12-25T18:13:32.073Z,3.60
2018-12-25T18:16:20.350Z,3.60
2018-12-25T18:19:08.705Z,3.50
2018-12-25T18:21:57.401Z,3.50
2018-12-25T18:27:45.117Z,3.40
2018-12-25T18:30:25.550Z,3.40
2018-12-25T18:33:06.313Z,3.30
2018-12-25T18:35:47.095Z,3.30
2018-12-25T18:38:26.514Z,3.20
2018-12-25T18:41:14.684Z,3.20
2018-12-25T18:50:04.177Z,3.10
2018-12-25T18:52:52.072Z,3.00
2018-12-25T18:55:40.344Z,3.00
2018-12-25T18:58:29.799Z,2.90
2018-12-25T19:01:17.913Z,2.90
2018-12-25T19:04:06.057Z,2.80
2018-12-25T19:06:54.184Z,2.80
2018-12-25T19:09:42.325Z,2.70
2018-12-25T19:12:30.532Z,2.70
2018-12-25T19:15:19.329Z,2.70
2018-12-25T19:18:08.961Z,2.70
2018-12-25T19:20:56.849Z,2.70
2018-12-25T19:23:47.777Z,2.60
2018-12-25T19:26:35.926Z,2.60
2018-12-25T19:29:16.860Z,2.60
2018-12-25T19:31:57.670Z,2.60
2018-12-25T19:34:38.295Z,2.60
2018-12-25T19:37:18.901Z,2.60
2018-12-25T19:39:59.257Z,2.60
2018-12-25T19:42:40.157Z,2.70
2018-12-25T19:45:21.229Z,2.70
2018-12-25T19:48:02.466Z,2.70
2018-12-25T19:50:43.198Z,2.70
2018-12-25T19:53:24.165Z,2.70
2018-12-25T19:56:05.202Z,2.70
2018-12-25T19:58:46.717Z,2.70
2018-12-25T20:01:28.312Z,2.80
2018-12-25T20:04:09.029Z,2.80
2018-12-25T20:06:49.746Z,2.90
2018-12-25T20:09:30.350Z,2.90
2018-12-25T20:12:11.473Z,2.80
2018-12-25T20:14:52.212Z,2.80
2018-12-25T20:17:33.037Z,2.80
2018-12-25T20:20:14.278Z,2.80
2018-12-25T20:22:54.794Z,2.70
2018-12-25T20:25:36.680Z,2.80
2018-12-25T20:28:17.577Z,2.70
2018-12-25T20:30:58.170Z,2.70
2018-12-25T20:36:23.790Z,2.60
2018-12-25T20:39:04.712Z,2.60
2018-12-25T20:44:30.294Z,2.50
2018-12-25T20:47:11.106Z,2.50
2018-12-25T20:49:53.545Z,2.50
2018-12-25T20:52:55.298Z,2.40
2018-12-25T20:56:02.514Z,2.40
2018-12-25T20:59:09.938Z,2.40
2018-12-25T21:02:05.202Z,2.40
2018-12-25T21:05:00.721Z,2.40
2018-12-25T21:08:07.960Z,2.30
2018-12-25T21:11:15.163Z,2.30
2018-12-25T21:14:22.349Z,2.30
2018-12-25T21:17:29.553Z,2.30
2018-12-25T21:20:36.741Z,2.30
2018-12-25T21:23:44.157Z,2.20
2018-12-25T21:26:51.581Z,2.20
2018-12-25T21:32:22.261Z,2.10
2018-12-25T21:37:52.633Z,2.00
2018-12-25T21:40:34.554Z,2.00
2018-12-25T21:46:04.749Z,2.00
2018-12-25T21:48:33.753Z,1.90
2018-12-25T21:51:21.899Z,1.90
2018-12-25T21:54:09.780Z,1.90
2018-12-25T21:56:58.128Z,1.90
2018-12-25T21:59:46.230Z,1.90
2018-12-25T22:02:34.129Z,1.80
2018-12-25T22:05:22.480Z,1.80
2018-12-25T22:08:10.594Z,1.80
2018-12-25T22:10:58.701Z,1.80
2018-12-25T22:13:46.905Z,1.80
2018-12-25T22:16:35.097Z,1.80
2018-12-25T22:19:23.209Z,1.70
2018-12-25T22:22:11.337Z,1.70
2018-12-25T22:24:59.575Z,1.70
2018-12-25T22:27:47.689Z,1.60
2018-12-25T22:30:35.790Z,1.60
2018-12-25T22:33:23.681Z,1.60
2018-12-25T22:36:12.055Z,1.60
2018-12-25T22:38:59.983Z,1.60
2018-12-25T22:41:48.080Z,1.50
2018-12-25T22:44:35.974Z,1.50
2018-12-25T22:47:24.092Z,1.50
2018-12-25T22:50:12.025Z,1.50
2018-12-25T22:53:00.649Z,1.50
2018-12-25T22:55:48.539Z,1.40
2018-12-25T22:58:36.885Z,1.40
2018-12-25T23:01:24.769Z,1.40
2018-12-25T23:04:12.885Z,1.30
2018-12-25T23:07:00.988Z,1.30
2018-12-25T23:09:49.116Z,1.30
2018-12-25T23:15:44.026Z,1.30
2018-12-25T23:18:31.913Z,1.20
2018-12-25T23:21:19.793Z,1.30
2018-12-25T23:24:07.958Z,1.20
2018-12-25T23:26:56.068Z,1.20
2018-12-25T23:29:37.133Z,1.20
2018-12-25T23:35:03.530Z,1.20
2018-12-25T23:37:44.741Z,1.20
2018-12-25T23:40:25.492Z,1.10
2018-12-25T23:45:51.897Z,1.10
2018-12-25T23:48:33.534Z,1.10
2018-12-25T23:51:02.789Z,1.10
2018-12-25T23:53:50.690Z,1.10
2018-12-25T23:56:38.769Z,1.00
2018-12-25T23:59:26.673Z,1.00
